To NAV CANADA Home Page Login to a new session Search on AWWS site Feedback and Comments Disclaimer Vers la page française équivalente Tips FAQ What's new on the site To the Forecasts and Observations / NOTAM section To "File a Flight Plan" website Publications and other links Update of the User's profile FIC Telephone Numbers My Weather Data Folder Route Weather Data Regional Weather Data Local Weather Data To the Forecasts and Observations / NOTAM section
Request Generated 06/26/2017 at 03:45:20 UTC . Weather information available at that time is displayed.

METAR/TAF

MONTREAL/ST-HUBERT/QC    (show WxCam)

METAR CYHU 260300Z AUTO 24008KT 9SM FEW095 SCT210 15/13 A2986 RMK
SLP115 DENSITY ALT 100FT=
METAR CYHU 260200Z AUTO 23009KT 9SM BKN160 BKN190 BKN230 15/13 A2986
RMK SLP115 DENSITY ALT 100FT=
METAR CYHU 260100Z AUTO 20009KT 9SM SCT240 15/12 A2986 RMK SLP113
DENSITY ALT 200FT=

TAF CYHU 252338Z 2600/2624 34007KT P6SM FEW020 BKN100 TEMPO 2602/2605
P6SM -SHRA
FM260500 26008KT P6SM SCT008 BKN030 TEMPO 2605/2607 6SM -SHRA BR
BKN008 OVC030
FM260700 27010KT 6SM BR FEW008 SCT030 PROB30 2608/2612 1SM BR
OVC004
FM261200 25008KT P6SM SCT020
FM261800 24010KT P6SM BKN050
FM262300 22007KT P6SM FEW050 SCT150
RMK FCST BASED ON AUTO OBS. NXT FCST BY 260600Z=
Your time UTC time
Weather data provided by Environment Canada and NAV CANADA